createdAt,value
2016-02-05T00:00:44.731Z,976.48
2016-02-05T00:01:44.702Z,976.51
2016-02-05T00:02:44.705Z,976.49
2016-02-05T00:03:44.707Z,976.5
2016-02-05T00:04:44.695Z,976.52
2016-02-05T00:05:44.682Z,976.5
2016-02-05T00:06:44.685Z,976.55
2016-02-05T00:07:44.688Z,976.59
2016-02-05T00:08:44.690Z,976.58
2016-02-05T00:09:44.677Z,976.59
2016-02-05T00:10:44.697Z,976.58
2016-02-05T00:11:44.667Z,976.63
2016-02-05T00:12:44.670Z,976.62
2016-02-05T00:13:44.673Z,976.62
2016-02-05T00:14:44.660Z,976.64
2016-02-05T00:15:44.668Z,976.63
2016-02-05T00:16:44.655Z,976.63
2016-02-05T00:17:44.659Z,976.67
2016-02-05T00:18:44.661Z,976.61
2016-02-05T00:19:44.648Z,976.65
2016-02-05T00:20:44.651Z,976.63
2016-02-05T00:21:44.638Z,976.61
2016-02-05T00:22:44.642Z,976.63
2016-02-05T00:23:44.644Z,976.64
2016-02-05T00:24:44.631Z,976.59
2016-02-05T00:25:44.639Z,976.59
2016-02-05T00:26:44.626Z,976.61
2016-02-05T00:27:44.628Z,976.59
2016-02-05T00:28:44.631Z,976.63
2016-02-05T00:29:44.619Z,976.67
2016-02-05T00:30:44.612Z,976.6
2016-02-05T00:31:44.614Z,976.64
2016-02-05T00:32:44.607Z,976.7
2016-02-05T00:33:44.610Z,976.68
2016-02-05T00:34:44.612Z,976.69
2016-02-05T00:35:44.609Z,976.68
2016-02-05T00:36:44.596Z,976.63
2016-02-05T00:37:44.599Z,976.66
2016-02-05T00:38:44.586Z,976.67
2016-02-05T00:39:44.589Z,976.69
2016-02-05T00:40:44.591Z,976.68
2016-02-05T00:41:44.594Z,976.65
2016-02-05T00:42:44.581Z,976.67
2016-02-05T00:43:44.575Z,976.68
2016-02-05T00:44:44.577Z,976.69
2016-02-05T00:45:44.564Z,976.71
2016-02-05T00:46:44.567Z,976.7
2016-02-05T00:47:44.570Z,976.72
2016-02-05T00:48:44.557Z,976.68
2016-02-05T00:49:44.559Z,976.73
2016-02-05T00:50:44.562Z,976.73
2016-02-05T00:51:44.550Z,976.74
2016-02-05T00:52:44.553Z,976.72
2016-02-05T00:53:44.539Z,976.75
2016-02-05T00:54:44.542Z,976.77
2016-02-05T00:55:44.548Z,976.8
2016-02-05T00:56:44.535Z,976.82
2016-02-05T00:57:44.541Z,976.86
2016-02-05T00:58:44.528Z,976.89
2016-02-05T00:59:44.531Z,976.9
2016-02-05T01:00:44.534Z,976.82
2016-02-05T01:01:44.521Z,976.8
2016-02-05T01:02:44.523Z,976.81
2016-02-05T01:03:44.510Z,976.85
2016-02-05T01:04:44.513Z,976.82
2016-02-05T01:05:44.516Z,976.79
2016-02-05T01:06:44.534Z,976.85
2016-02-05T01:07:44.507Z,976.88
2016-02-05T01:08:44.510Z,976.85
2016-02-05T01:09:44.496Z,976.87
2016-02-05T01:10:44.499Z,976.86
2016-02-05T01:11:44.501Z,976.86
2016-02-05T01:12:44.490Z,976.92
2016-02-05T01:13:44.492Z,976.89
2016-02-05T01:14:44.480Z,976.97
2016-02-05T01:15:44.482Z,976.99
2016-02-05T01:16:44.485Z,977.01
2016-02-05T01:17:44.476Z,977.05
2016-02-05T01:18:44.479Z,977.04
2016-02-05T01:19:44.465Z,977.05
2016-02-05T01:20:44.467Z,977.08
2016-02-05T01:21:44.471Z,977.09
2016-02-05T01:22:44.458Z,977.09
2016-02-05T01:23:44.461Z,977.07
2016-02-05T01:24:44.463Z,977.08
2016-02-05T01:25:44.451Z,977.07
2016-02-05T01:26:44.453Z,977.07
2016-02-05T01:27:44.445Z,977.12
2016-02-05T01:28:44.447Z,977.1
2016-02-05T01:29:44.435Z,977.13
2016-02-05T01:30:44.438Z,977.13
2016-02-05T01:31:44.440Z,977.15
2016-02-05T01:32:44.427Z,977.18
2016-02-05T01:33:44.430Z,977.25
2016-02-05T01:34:44.418Z,977.23
2016-02-05T01:35:44.424Z,977.23
2016-02-05T01:36:44.411Z,977.21
2016-02-05T01:37:44.430Z,977.29
2016-02-05T01:38:44.417Z,977.33
2016-02-05T01:39:44.403Z,977.33
2016-02-05T01:40:44.406Z,977.32
2016-02-05T01:41:44.408Z,977.33
2016-02-05T01:42:44.411Z,977.32
2016-02-05T01:43:44.399Z,977.35
2016-02-05T01:44:44.401Z,977.38
2016-02-05T01:45:44.388Z,977.36
2016-02-05T01:46:44.390Z,977.37
2016-02-05T01:47:44.379Z,977.38
2016-02-05T01:48:44.381Z,977.4
2016-02-05T01:49:44.384Z,977.39
2016-02-05T01:50:44.371Z,977.41
2016-02-05T01:51:44.374Z,977.4
2016-02-05T01:52:44.365Z,977.38
2016-02-05T01:53:44.367Z,977.36
2016-02-05T01:54:44.370Z,977.34
2016-02-05T01:55:44.360Z,977.36
2016-02-05T01:56:44.348Z,977.33
2016-02-05T01:57:44.351Z,977.37
2016-02-05T01:58:44.345Z,977.33
2016-02-05T01:59:44.348Z,977.34
2016-02-05T02:00:44.351Z,977.34
2016-02-05T02:01:44.337Z,977.33
2016-02-05T02:02:44.340Z,977.35
2016-02-05T02:03:44.333Z,977.34
2016-02-05T02:04:44.336Z,977.32
2016-02-05T02:05:44.322Z,977.32
2016-02-05T02:06:44.324Z,977.31
2016-02-05T02:07:44.328Z,977.29
2016-02-05T02:08:44.315Z,977.26
2016-02-05T02:09:44.318Z,977.25
2016-02-05T02:10:44.321Z,977.24
2016-02-05T02:11:44.308Z,977.23
2016-02-05T02:12:44.312Z,977.24
2016-02-05T02:13:44.298Z,977.22
2016-02-05T02:14:44.301Z,977.25
2016-02-05T02:15:44.304Z,977.27
2016-02-05T02:16:44.306Z,977.23
2016-02-05T02:17:44.293Z,977.23
2016-02-05T02:18:44.296Z,977.22
2016-02-05T02:19:44.283Z,977.21
2016-02-05T02:20:44.272Z,977.24
2016-02-05T02:21:44.291Z,977.25
2016-02-05T02:22:44.278Z,977.31
2016-02-05T02:23:44.265Z,977.29
2016-02-05T02:24:44.267Z,977.26
2016-02-05T02:25:44.270Z,977.26
2016-02-05T02:26:44.273Z,977.28
2016-02-05T02:27:44.263Z,977.31
2016-02-05T02:28:44.265Z,977.29
2016-02-05T02:29:44.252Z,977.31
2016-02-05T02:30:44.260Z,977.34
2016-02-05T02:31:44.247Z,977.4
2016-02-05T02:32:44.249Z,977.36
2016-02-05T02:33:44.253Z,977.37
2016-02-05T02:34:44.240Z,977.37
2016-02-05T02:35:44.243Z,977.41
2016-02-05T02:36:44.229Z,977.41
2016-02-05T02:37:44.232Z,977.4
2016-02-05T02:38:44.220Z,977.48
2016-02-05T02:39:44.223Z,977.4
2016-02-05T02:40:44.225Z,977.38
2016-02-05T02:41:44.212Z,977.41
2016-02-05T02:42:44.216Z,977.4
2016-02-05T02:43:44.219Z,977.46
2016-02-05T02:44:44.210Z,977.48
2016-02-05T02:45:44.212Z,977.44
2016-02-05T02:46:44.199Z,977.41
2016-02-05T02:47:44.202Z,977.35
2016-02-05T02:48:44.204Z,977.35
2016-02-05T02:49:44.192Z,977.36
2016-02-05T02:50:44.195Z,977.37
2016-02-05T02:51:44.198Z,977.33
2016-02-05T02:52:44.187Z,977.36
2016-02-05T02:53:44.190Z,977.38
2016-02-05T02:54:44.177Z,977.37
2016-02-05T02:55:44.180Z,977.38
2016-02-05T02:56:44.167Z,977.34
2016-02-05T02:57:44.171Z,977.35
2016-02-05T02:58:44.173Z,977.35
2016-02-05T02:59:44.161Z,977.37
2016-02-05T03:00:44.167Z,977.34
2016-02-05T03:01:44.154Z,977.32
2016-02-05T03:02:44.157Z,977.37
2016-02-05T03:03:44.160Z,977.34
2016-02-05T03:04:44.147Z,977.38
2016-02-05T03:05:44.150Z,977.38
2016-02-05T03:06:44.137Z,977.39
2016-02-05T03:07:44.139Z,977.43
2016-02-05T03:08:44.128Z,977.42
2016-02-05T03:09:44.145Z,977.38
2016-02-05T03:10:44.133Z,977.43
2016-02-05T03:11:44.119Z,977.44
2016-02-05T03:12:44.122Z,977.48
2016-02-05T03:13:44.126Z,977.48
2016-02-05T03:14:44.117Z,977.48
2016-02-05T03:15:44.107Z,977.5
2016-02-05T03:16:44.110Z,977.5
2016-02-05T03:17:44.113Z,977.46
2016-02-05T03:18:44.099Z,977.48
2016-02-05T03:19:44.102Z,977.49
2016-02-05T03:20:44.093Z,977.44
2016-02-05T03:21:44.096Z,977.45
2016-02-05T03:22:44.098Z,977.43
2016-02-05T03:23:44.086Z,977.45
2016-02-05T03:24:44.088Z,977.48
2016-02-05T03:25:44.076Z,977.48
2016-02-05T03:26:44.079Z,977.47
2016-02-05T03:27:44.082Z,977.48
2016-02-05T03:28:44.068Z,977.46
2016-02-05T03:29:44.071Z,977.46
2016-02-05T03:30:44.074Z,977.43
2016-02-05T03:31:44.058Z,977.51
2016-02-05T03:32:44.060Z,977.52
2016-02-05T03:33:44.062Z,977.49
2016-02-05T03:34:44.049Z,977.49
2016-02-05T03:35:44.052Z,977.51
2016-02-05T03:36:44.055Z,977.54
2016-02-05T03:37:44.042Z,977.51
2016-02-05T03:38:44.047Z,977.56
2016-02-05T03:39:44.049Z,977.57
2016-02-05T03:40:44.037Z,977.61
2016-02-05T03:41:44.023Z,977.61
2016-02-05T03:42:44.026Z,977.64
2016-02-05T03:43:44.029Z,977.64
2016-02-05T03:44:44.016Z,977.65
2016-02-05T03:45:44.021Z,977.67
2016-02-05T03:46:44.023Z,977.65
2016-02-05T03:47:44.011Z,977.68
2016-02-05T03:48:44.013Z,977.68
2016-02-05T03:49:44.000Z,977.66
2016-02-05T03:50:44.002Z,977.7
2016-02-05T03:51:44.006Z,977.73
2016-02-05T03:52:43.993Z,977.72
2016-02-05T03:53:43.995Z,977.75
2016-02-05T03:54:43.999Z,977.77
2016-02-05T03:55:43.984Z,977.78
2016-02-05T03:56:43.988Z,977.84
2016-02-05T03:57:43.991Z,977.78
2016-02-05T03:58:43.980Z,977.79
2016-02-05T03:59:43.982Z,977.83
2016-02-05T04:00:43.961Z,977.82
2016-02-05T04:01:43.964Z,977.86
2016-02-05T04:02:43.967Z,977.82
2016-02-05T04:03:43.953Z,977.84
2016-02-05T04:04:43.957Z,977.8
2016-02-05T04:05:43.947Z,977.79
2016-02-05T04:06:43.950Z,977.77
2016-02-05T04:07:43.952Z,977.78
2016-02-05T04:08:43.939Z,977.77
2016-02-05T04:09:43.942Z,977.82
2016-02-05T04:10:43.944Z,977.85
2016-02-05T04:11:43.931Z,977.87
2016-02-05T04:12:43.934Z,977.86
2016-02-05T04:13:43.921Z,977.88
2016-02-05T04:14:43.924Z,977.86
2016-02-05T04:15:43.942Z,977.86
2016-02-05T04:16:43.913Z,977.92
2016-02-05T04:17:43.932Z,977.9
2016-02-05T04:18:43.919Z,977.91
2016-02-05T04:19:43.908Z,977.91
2016-02-05T04:20:43.910Z,977.89
2016-02-05T04:21:43.913Z,977.95
2016-02-05T04:22:43.905Z,977.99
2016-02-05T04:23:43.893Z,977.97
2016-02-05T04:24:43.895Z,977.95
2016-02-05T04:25:43.897Z,977.96
2016-02-05T04:26:43.885Z,977.93
2016-02-05T04:27:43.887Z,977.94
2016-02-05T04:28:43.891Z,977.93
2016-02-05T04:29:43.875Z,977.97
2016-02-05T04:30:43.878Z,977.96
2016-02-05T04:31:43.881Z,977.99
2016-02-05T04:32:43.861Z,977.96
2016-02-05T04:33:43.856Z,977.99
2016-02-05T04:34:43.850Z,978
2016-02-05T04:35:43.830Z,977.98
2016-02-05T04:36:43.809Z,978
2016-02-05T04:37:43.808Z,977.98
2016-02-05T04:38:43.808Z,978
2016-02-05T04:39:43.808Z,978.03
2016-02-05T04:40:43.793Z,978.03
2016-02-05T04:41:43.793Z,978.07
2016-02-05T04:42:43.779Z,978.07
2016-02-05T04:43:43.781Z,978.11
2016-02-05T04:44:43.766Z,978.17
2016-02-05T04:45:43.768Z,978.14
2016-02-05T04:46:43.769Z,978.13
2016-02-05T04:47:43.756Z,978.14
2016-02-05T04:48:43.759Z,978.13
2016-02-05T04:49:43.745Z,978.15
2016-02-05T04:50:43.749Z,978.17
2016-02-05T04:51:43.751Z,978.21
2016-02-05T04:52:43.738Z,978.2
2016-02-05T04:53:43.741Z,978.26
2016-02-05T04:54:43.743Z,978.27
2016-02-05T04:55:43.735Z,978.34
2016-02-05T04:56:43.738Z,978.34
2016-02-05T04:57:43.724Z,978.29
2016-02-05T04:58:43.728Z,978.27
2016-02-05T04:59:43.731Z,978.24
2016-02-05T05:00:43.719Z,978.24
2016-02-05T05:01:43.722Z,978.22
2016-02-05T05:02:43.709Z,978.19
2016-02-05T05:03:43.715Z,978.2
2016-02-05T05:04:43.702Z,978.18
2016-02-05T05:05:43.704Z,978.18
2016-02-05T05:06:43.707Z,978.18
2016-02-05T05:07:43.695Z,978.2
2016-02-05T05:08:43.697Z,978.14
2016-02-05T05:09:43.699Z,978.14
2016-02-05T05:10:43.687Z,978.17
2016-02-05T05:11:43.690Z,978.15
2016-02-05T05:12:43.677Z,978.15
2016-02-05T05:13:43.695Z,978.16
2016-02-05T05:14:43.682Z,978.15
2016-02-05T05:15:43.700Z,978.16
2016-02-05T05:16:43.672Z,978.15
2016-02-05T05:17:43.660Z,978.21
2016-02-05T05:18:43.662Z,978.15
2016-02-05T05:19:43.665Z,978.2
2016-02-05T05:20:43.649Z,978.21
2016-02-05T05:21:43.652Z,978.21
2016-02-05T05:22:43.655Z,978.17
2016-02-05T05:23:43.643Z,978.18
2016-02-05T05:24:43.645Z,978.2
2016-02-05T05:25:43.648Z,978.22
2016-02-05T05:26:43.636Z,978.21
2016-02-05T05:27:43.638Z,978.24
2016-02-05T05:28:43.629Z,978.2
2016-02-05T05:29:43.632Z,978.19
2016-02-05T05:30:43.621Z,978.25
2016-02-05T05:31:43.624Z,978.24
2016-02-05T05:32:43.612Z,978.22
2016-02-05T05:33:43.614Z,978.26
2016-02-05T05:34:43.617Z,978.23
2016-02-05T05:35:43.604Z,978.29
2016-02-05T05:36:43.611Z,978.25
2016-02-05T05:37:43.597Z,978.25
2016-02-05T05:38:43.600Z,978.26
2016-02-05T05:39:43.603Z,978.23
2016-02-05T05:40:43.591Z,978.22
2016-02-05T05:41:43.593Z,978.2
2016-02-05T05:42:43.595Z,978.19
2016-02-05T05:43:43.584Z,978.22
2016-02-05T05:44:43.586Z,978.2
2016-02-05T05:45:43.589Z,978.23
2016-02-05T05:46:43.576Z,978.28
2016-02-05T05:47:43.579Z,978.23
2016-02-05T05:48:43.567Z,978.23
2016-02-05T05:49:43.569Z,978.26
2016-02-05T05:50:43.556Z,978.3
2016-02-05T05:51:43.559Z,978.29
2016-02-05T05:52:43.561Z,978.3
2016-02-05T05:53:43.550Z,978.31
2016-02-05T05:54:43.552Z,978.31
2016-02-05T05:55:43.555Z,978.34
2016-02-05T05:56:43.541Z,978.34
2016-02-05T05:57:43.543Z,978.32
2016-02-05T05:58:43.547Z,978.28
2016-02-05T05:59:43.534Z,978.32
2016-02-05T06:00:43.537Z,978.27
2016-02-05T06:01:43.524Z,978.31
2016-02-05T06:02:43.528Z,978.28
2016-02-05T06:03:43.530Z,978.31
2016-02-05T06:04:43.517Z,978.26
2016-02-05T06:05:43.520Z,978.33
2016-02-05T06:06:43.522Z,978.26
2016-02-05T06:07:43.509Z,978.29
2016-02-05T06:08:43.513Z,978.32
2016-02-05T06:09:43.501Z,978.28
2016-02-05T06:10:43.503Z,978.27
2016-02-05T06:11:43.506Z,978.33
2016-02-05T06:12:43.492Z,978.31
2016-02-05T06:13:43.495Z,978.31
2016-02-05T06:14:43.483Z,978.36
2016-02-05T06:15:43.486Z,978.37
2016-02-05T06:16:43.489Z,978.36
2016-02-05T06:17:43.475Z,978.39
2016-02-05T06:18:43.495Z,978.4
2016-02-05T06:19:43.467Z,978.43
2016-02-05T06:20:43.469Z,978.41
2016-02-05T06:21:43.461Z,978.42
2016-02-05T06:22:43.463Z,978.42
2016-02-05T06:23:43.466Z,978.44
2016-02-05T06:24:43.453Z,978.39
2016-02-05T06:25:43.455Z,978.41
2016-02-05T06:26:43.458Z,978.41
2016-02-05T06:27:43.460Z,978.36
2016-02-05T06:28:43.448Z,978.35
2016-02-05T06:29:43.446Z,978.39
2016-02-05T06:30:43.449Z,978.36
2016-02-05T06:31:43.436Z,978.37
2016-02-05T06:32:43.439Z,978.38
2016-02-05T06:33:43.426Z,978.4
2016-02-05T06:34:43.429Z,978.42
2016-02-05T06:35:43.431Z,978.43
2016-02-05T06:36:43.419Z,978.43
2016-02-05T06:37:43.422Z,978.44
2016-02-05T06:38:43.424Z,978.46
2016-02-05T06:39:43.411Z,978.42
2016-02-05T06:40:43.414Z,978.43
2016-02-05T06:41:43.402Z,978.44
2016-02-05T06:42:43.404Z,978.44
2016-02-05T06:43:43.392Z,978.44
2016-02-05T06:44:43.394Z,978.39
2016-02-05T06:45:43.397Z,978.41
2016-02-05T06:46:43.384Z,978.39
2016-02-05T06:47:43.387Z,978.38
2016-02-05T06:48:43.389Z,978.41
2016-02-05T06:49:43.375Z,978.46
2016-02-05T06:50:43.378Z,978.43
2016-02-05T06:51:43.382Z,978.46
2016-02-05T06:52:43.369Z,978.48
2016-02-05T06:53:43.371Z,978.45
2016-02-05T06:54:43.359Z,978.48
2016-02-05T06:55:43.361Z,978.46
2016-02-05T06:56:43.365Z,978.47
2016-02-05T06:57:43.352Z,978.44
2016-02-05T06:58:43.355Z,978.47
2016-02-05T06:59:43.354Z,978.49
2016-02-05T07:00:43.342Z,978.51
2016-02-05T07:01:43.344Z,978.49
2016-02-05T07:02:43.347Z,978.5
2016-02-05T07:03:43.333Z,978.53
2016-02-05T07:04:43.338Z,978.54
2016-02-05T07:05:43.325Z,978.57
2016-02-05T07:06:43.328Z,978.64
2016-02-05T07:07:43.330Z,978.6
2016-02-05T07:08:43.317Z,978.58
2016-02-05T07:09:43.321Z,978.59
2016-02-05T07:10:43.307Z,978.51
2016-02-05T07:11:43.326Z,978.53
2016-02-05T07:12:43.312Z,978.51
2016-02-05T07:13:43.301Z,978.49
2016-02-05T07:14:43.304Z,978.51
2016-02-05T07:15:43.307Z,978.48
2016-02-05T07:16:43.293Z,978.51
2016-02-05T07:17:43.296Z,978.49
2016-02-05T07:18:43.315Z,978.51
2016-02-05T07:19:43.287Z,978.47
2016-02-05T07:20:43.289Z,978.44
2016-02-05T07:21:43.283Z,978.46
2016-02-05T07:22:43.286Z,978.51
2016-02-05T07:23:43.272Z,978.51
2016-02-05T07:24:43.275Z,978.52
2016-02-05T07:25:43.262Z,978.55
2016-02-05T07:26:43.265Z,978.56
2016-02-05T07:27:43.268Z,978.61
2016-02-05T07:28:43.256Z,978.62
2016-02-05T07:29:43.261Z,978.7
2016-02-05T07:30:43.263Z,978.61
2016-02-05T07:31:43.250Z,978.62
2016-02-05T07:32:43.253Z,978.59
2016-02-05T07:33:43.255Z,978.59
2016-02-05T07:34:43.244Z,978.58
2016-02-05T07:35:43.247Z,978.59
2016-02-05T07:36:43.235Z,978.6
2016-02-05T07:37:43.237Z,978.62
2016-02-05T07:38:43.240Z,978.62
2016-02-05T07:39:43.226Z,978.63
2016-02-05T07:40:43.230Z,978.63
2016-02-05T07:41:43.232Z,978.55
2016-02-05T07:42:43.220Z,978.53
2016-02-05T07:43:43.222Z,978.54
2016-02-05T07:44:43.224Z,978.5
2016-02-05T07:45:43.212Z,978.52
2016-02-05T07:46:43.215Z,978.5
2016-02-05T07:47:43.217Z,978.51
2016-02-05T07:48:43.203Z,978.53
2016-02-05T07:49:43.206Z,978.53
2016-02-05T07:50:43.209Z,978.53
2016-02-05T07:51:43.196Z,978.54
2016-02-05T07:52:43.199Z,978.51
2016-02-05T07:53:43.186Z,978.51
2016-02-05T07:54:43.190Z,978.49
2016-02-05T07:55:43.178Z,978.51
2016-02-05T07:56:43.180Z,978.51
2016-02-05T07:57:43.183Z,978.53
2016-02-05T07:58:43.170Z,978.55
2016-02-05T07:59:43.173Z,978.58
2016-02-05T08:00:43.160Z,978.6
2016-02-05T08:01:43.168Z,978.59
2016-02-05T08:02:43.158Z,978.58
2016-02-05T08:03:43.161Z,978.61
2016-02-05T08:04:43.149Z,978.55
2016-02-05T08:05:43.152Z,978.56
2016-02-05T08:06:43.154Z,978.58
2016-02-05T08:07:43.141Z,978.6
2016-02-05T08:08:43.161Z,978.6
2016-02-05T08:09:43.147Z,978.63
2016-02-05T08:10:43.166Z,978.64
2016-02-05T08:11:43.136Z,978.63
2016-02-05T08:12:43.139Z,978.67
2016-02-05T08:13:43.142Z,978.67
2016-02-05T08:14:43.129Z,978.65
2016-02-05T08:15:43.132Z,978.61
2016-02-05T08:16:43.119Z,978.63
2016-02-05T08:17:43.121Z,978.63
2016-02-05T08:18:43.124Z,978.64
2016-02-05T08:19:43.114Z,978.63
2016-02-05T08:20:43.101Z,978.68
2016-02-05T08:21:43.119Z,978.65
2016-02-05T08:22:43.108Z,978.7
2016-02-05T08:23:43.110Z,978.64
2016-02-05T08:24:43.096Z,978.63
2016-02-05T08:25:43.099Z,978.6
2016-02-05T08:26:43.102Z,978.63
2016-02-05T08:27:43.092Z,978.59
2016-02-05T08:28:43.094Z,978.64
2016-02-05T08:29:43.081Z,978.64
2016-02-05T08:30:43.086Z,978.65
2016-02-05T08:31:43.088Z,978.65
2016-02-05T08:32:43.075Z,978.64
2016-02-05T08:33:43.078Z,978.62
2016-02-05T08:34:43.080Z,978.65
2016-02-05T08:35:43.115Z,978.71
2016-02-05T08:36:43.071Z,978.66
2016-02-05T08:37:43.073Z,978.72
2016-02-05T08:38:43.060Z,978.67
2016-02-05T08:39:43.063Z,978.72
2016-02-05T08:40:43.050Z,978.68
2016-02-05T08:41:43.053Z,978.67
2016-02-05T08:42:43.056Z,978.64
2016-02-05T08:43:43.043Z,978.65
2016-02-05T08:44:43.046Z,978.65
2016-02-05T08:45:43.049Z,978.66
2016-02-05T08:46:43.052Z,978.69
2016-02-05T08:47:43.040Z,978.69
2016-02-05T08:48:43.043Z,978.71
2016-02-05T08:49:43.030Z,978.72
2016-02-05T08:50:43.033Z,978.74
2016-02-05T08:51:43.035Z,978.76
2016-02-05T08:52:43.025Z,978.78
2016-02-05T08:53:43.027Z,978.8
2016-02-05T08:54:43.030Z,978.8
2016-02-05T08:55:43.017Z,978.78
2016-02-05T08:56:43.020Z,978.74
2016-02-05T08:57:43.022Z,978.75
2016-02-05T08:58:43.010Z,978.77
2016-02-05T08:59:43.012Z,978.76
2016-02-05T09:00:43.003Z,978.72
2016-02-05T09:01:43.006Z,978.78
2016-02-05T09:02:43.009Z,978.77
2016-02-05T09:03:43.012Z,978.77
2016-02-05T09:04:42.998Z,978.81
2016-02-05T09:05:43.004Z,978.81
2016-02-05T09:06:43.007Z,978.82
2016-02-05T09:07:42.994Z,978.83
2016-02-05T09:08:42.996Z,978.83
2016-02-05T09:09:42.984Z,978.83
2016-02-05T09:10:42.987Z,978.85
2016-02-05T09:11:43.004Z,978.84
2016-02-05T09:12:42.977Z,978.82
2016-02-05T09:13:42.981Z,978.87
2016-02-05T09:14:42.971Z,978.85
2016-02-05T09:15:42.974Z,978.86
2016-02-05T09:16:42.977Z,978.87
2016-02-05T09:17:42.966Z,978.87
2016-02-05T09:18:42.968Z,978.87
2016-02-05T09:19:42.971Z,978.89
2016-02-05T09:20:42.965Z,978.86
2016-02-05T09:21:42.968Z,978.88
2016-02-05T09:22:42.955Z,978.88
2016-02-05T09:23:42.957Z,978.87
2016-02-05T09:24:42.960Z,978.86
2016-02-05T09:25:42.952Z,978.88
2016-02-05T09:26:42.954Z,978.84
2016-02-05T09:27:42.957Z,978.91
2016-02-05T09:28:42.944Z,978.86
2016-02-05T09:29:42.946Z,978.85
2016-02-05T09:30:42.933Z,978.86
2016-02-05T09:31:42.935Z,978.83
2016-02-05T09:32:42.938Z,978.84
2016-02-05T09:33:42.941Z,978.84
2016-02-05T09:34:42.929Z,978.84
2016-02-05T09:35:42.931Z,978.83
2016-02-05T09:36:42.935Z,978.87
2016-02-05T09:37:42.921Z,978.88
2016-02-05T09:38:42.924Z,978.91
2016-02-05T09:39:42.926Z,978.93
2016-02-05T09:40:42.929Z,978.92
2016-02-05T09:41:42.917Z,978.93
2016-02-05T09:42:42.919Z,978.96
2016-02-05T09:43:42.922Z,978.94
2016-02-05T09:44:42.908Z,978.97
2016-02-05T09:45:42.912Z,978.96
2016-02-05T09:46:42.899Z,978.96
2016-02-05T09:47:42.902Z,979
2016-02-05T09:48:42.907Z,979.01
2016-02-05T09:49:42.896Z,979.02
2016-02-05T09:50:42.898Z,979.03
2016-02-05T09:51:42.900Z,979.07
2016-02-05T09:52:42.903Z,979.05
2016-02-05T09:53:42.891Z,979.05
2016-02-05T09:54:42.894Z,979.01
2016-02-05T09:55:42.897Z,979.08
2016-02-05T09:56:42.883Z,979.05
2016-02-05T09:57:42.886Z,979.06
2016-02-05T09:58:42.890Z,979.05
2016-02-05T09:59:42.878Z,979.09
2016-02-05T10:00:42.880Z,979.07
2016-02-05T10:01:42.883Z,979.08
2016-02-05T10:02:42.870Z,979.08
2016-02-05T10:03:42.873Z,979.09
2016-02-05T10:04:42.876Z,979.07
2016-02-05T10:05:42.864Z,979.08
2016-02-05T10:06:42.866Z,979.08
2016-02-05T10:07:42.869Z,979.08
2016-02-05T10:08:42.857Z,979.04
2016-02-05T10:09:42.859Z,979.06
2016-02-05T10:10:42.862Z,979.09
2016-02-05T10:11:42.865Z,979.05
2016-02-05T10:12:42.851Z,979.05
2016-02-05T10:13:42.854Z,979.05
2016-02-05T10:14:42.841Z,979.05
2016-02-05T10:15:42.843Z,979.01
2016-02-05T10:16:42.848Z,978.99
2016-02-05T10:17:42.835Z,979.03
2016-02-05T10:18:42.842Z,978.97
2016-02-05T10:19:42.845Z,978.95
2016-02-05T10:20:42.831Z,978.96
2016-02-05T10:21:42.834Z,978.94
2016-02-05T10:22:42.837Z,978.96
2016-02-05T10:23:42.824Z,978.97
2016-02-05T10:24:42.826Z,978.95
2016-02-05T10:25:42.829Z,978.94
2016-02-05T10:26:42.831Z,978.94
2016-02-05T10:27:42.820Z,978.94
2016-02-05T10:28:42.822Z,978.91
2016-02-05T10:29:42.825Z,978.94
2016-02-05T10:30:42.827Z,978.92
2016-02-05T10:31:42.814Z,978.94
2016-02-05T10:32:42.817Z,978.89
2016-02-05T10:33:42.808Z,978.87
2016-02-05T10:34:42.810Z,978.84
2016-02-05T10:35:42.813Z,978.87
2016-02-05T10:36:42.800Z,978.87
2016-02-05T10:37:42.803Z,978.8
2016-02-05T10:38:42.807Z,978.86
2016-02-05T10:39:42.794Z,978.8
2016-02-05T10:40:42.797Z,978.79
2016-02-05T10:41:42.815Z,978.75
2016-02-05T10:42:42.787Z,978.77
2016-02-05T10:43:42.790Z,978.73
2016-02-05T10:44:42.792Z,978.76
2016-02-05T10:45:42.779Z,978.73
2016-02-05T10:46:42.782Z,978.73
2016-02-05T10:47:42.784Z,978.7
2016-02-05T10:48:42.787Z,978.69
2016-02-05T10:49:42.774Z,978.71
2016-02-05T10:50:42.776Z,978.7
2016-02-05T10:51:42.779Z,978.68
2016-02-05T10:52:42.782Z,978.68
2016-02-05T10:53:42.769Z,978.66
2016-02-05T10:54:42.772Z,978.66
2016-02-05T10:55:42.775Z,978.64
2016-02-05T10:56:42.762Z,978.64
2016-02-05T10:57:42.764Z,978.59
2016-02-05T10:58:42.767Z,978.57
2016-02-05T10:59:42.755Z,978.58
2016-02-05T11:00:42.773Z,978.54
2016-02-05T11:01:42.760Z,978.52
2016-02-05T11:02:42.765Z,978.49
2016-02-05T11:03:42.752Z,978.53
2016-02-05T11:04:42.755Z,978.49
2016-02-05T11:05:42.742Z,978.47
2016-02-05T11:06:42.760Z,978.46
2016-02-05T11:07:42.747Z,978.48
2016-02-05T11:08:42.749Z,978.45
2016-02-05T11:09:42.737Z,978.45
2016-02-05T11:10:42.740Z,978.43
2016-02-05T11:11:42.744Z,978.43
2016-02-05T11:12:42.746Z,978.4
2016-02-05T11:13:42.733Z,978.35
2016-02-05T11:14:42.736Z,978.36
2016-02-05T11:15:42.738Z,978.37
2016-02-05T11:16:42.727Z,978.35
2016-02-05T11:17:42.729Z,978.36
2016-02-05T11:18:42.732Z,978.32
2016-02-05T11:19:42.737Z,978.31
2016-02-05T11:20:42.724Z,978.31
2016-02-05T11:21:42.727Z,978.31
2016-02-05T11:22:42.713Z,978.31
2016-02-05T11:23:42.732Z,978.27
2016-02-05T11:24:42.720Z,978.32
2016-02-05T11:25:42.723Z,978.22
2016-02-05T11:26:42.725Z,978.19
2016-02-05T11:27:42.712Z,978.22
2016-02-05T11:28:42.715Z,978.19
2016-02-05T11:29:42.717Z,978.18
2016-02-05T11:30:42.705Z,978.16
2016-02-05T11:31:42.709Z,978.14
2016-02-05T11:32:42.713Z,978.15
2016-02-05T11:33:42.699Z,978.18
2016-02-05T11:34:42.718Z,978.14
2016-02-05T11:35:42.704Z,978.1
2016-02-05T11:36:42.697Z,978.09
2016-02-05T11:37:42.698Z,978.13
2016-02-05T11:38:42.701Z,978.11
2016-02-05T11:39:42.690Z,978.13
2016-02-05T11:40:42.692Z,978.09
2016-02-05T11:41:42.695Z,978.13
2016-02-05T11:42:42.697Z,978.11
2016-02-05T11:43:42.684Z,978.07
2016-02-05T11:44:42.687Z,978.08
2016-02-05T11:45:42.690Z,978.07
2016-02-05T11:46:42.692Z,978.07
2016-02-05T11:47:42.695Z,978.04
2016-02-05T11:48:42.681Z,978.04
2016-02-05T11:49:42.684Z,978.02
2016-02-05T11:50:42.672Z,978.02
2016-02-05T11:51:42.675Z,978.01
2016-02-05T11:52:42.677Z,978.02
2016-02-05T11:53:42.680Z,978.01
2016-02-05T11:54:42.666Z,978.04
2016-02-05T11:55:42.669Z,978.01
2016-02-05T11:56:42.672Z,977.99
2016-02-05T11:57:42.659Z,978.01
2016-02-05T11:58:42.662Z,978.02
2016-02-05T11:59:42.665Z,978
2016-02-05T12:00:42.667Z,977.97
2016-02-05T12:01:42.670Z,977.97
2016-02-05T12:02:42.659Z,977.97
2016-02-05T12:03:42.662Z,977.95
2016-02-05T12:04:42.667Z,977.96
2016-02-05T12:05:42.653Z,977.97
2016-02-05T12:06:42.656Z,977.94
2016-02-05T12:07:42.659Z,977.94
2016-02-05T12:08:42.647Z,977.93
2016-02-05T12:09:42.652Z,977.86
2016-02-05T12:10:42.655Z,977.89
2016-02-05T12:11:42.657Z,977.88
2016-02-05T12:12:42.645Z,977.87
2016-02-05T12:13:42.648Z,977.84
2016-02-05T12:14:42.650Z,977.88
2016-02-05T12:15:42.637Z,977.84
2016-02-05T12:16:42.639Z,977.83
2016-02-05T12:17:42.644Z,977.86
2016-02-05T12:18:42.632Z,977.83
2016-02-05T12:19:42.635Z,977.85
2016-02-05T12:20:42.637Z,977.87
2016-02-05T12:21:42.624Z,977.86
2016-02-05T12:22:42.629Z,977.82
2016-02-05T12:23:42.631Z,977.81
2016-02-05T12:24:42.634Z,977.78
2016-02-05T12:25:42.637Z,977.76
2016-02-05T12:26:42.625Z,977.75
2016-02-05T12:27:42.627Z,977.75
2016-02-05T12:28:42.630Z,977.75
2016-02-05T12:29:42.617Z,977.72
2016-02-05T12:30:42.623Z,977.72